createdAt,value
2022-12-01T00:00:45.330Z,7
2022-12-01T00:01:45.753Z,6.99
2022-12-01T00:02:45.557Z,6.94
2022-12-01T00:03:45.339Z,6.92
2022-12-01T00:04:45.376Z,6.85
2022-12-01T00:05:45.284Z,6.77
2022-12-01T00:06:48.655Z,6.75
2022-12-01T00:07:47.532Z,6.77
2022-12-01T00:08:45.456Z,6.85
2022-12-01T00:09:45.446Z,6.87
2022-12-01T00:10:45.717Z,6.89
2022-12-01T00:11:45.826Z,6.85
2022-12-01T00:12:45.286Z,6.88
2022-12-01T00:13:45.277Z,6.92
2022-12-01T00:14:45.402Z,6.91
2022-12-01T00:15:45.344Z,6.83
2022-12-01T00:16:45.805Z,6.81
2022-12-01T00:17:45.284Z,6.88
2022-12-01T00:18:45.261Z,6.83
2022-12-01T00:19:45.652Z,6.78
2022-12-01T00:20:45.367Z,6.77
2022-12-01T00:21:45.709Z,6.7
2022-12-01T00:22:48.300Z,6.71
2022-12-01T00:23:45.422Z,6.7
2022-12-01T00:24:45.392Z,6.68
2022-12-01T00:25:45.718Z,6.64
2022-12-01T00:26:45.638Z,6.62
2022-12-01T00:27:45.381Z,6.61
2022-12-01T00:28:45.291Z,6.66
2022-12-01T00:29:45.502Z,6.68
2022-12-01T00:30:45.365Z,6.72
2022-12-01T00:31:45.826Z,6.76
2022-12-01T00:32:45.456Z,6.78
2022-12-01T00:33:48.412Z,6.78
2022-12-01T00:34:45.370Z,6.76
2022-12-01T00:35:45.282Z,6.72
2022-12-01T00:36:45.711Z,6.67
2022-12-01T00:37:45.365Z,6.63
2022-12-01T00:38:45.366Z,6.62
2022-12-01T00:39:45.410Z,6.6
2022-12-01T00:40:45.716Z,6.58
2022-12-01T00:41:45.649Z,6.56
2022-12-01T00:42:45.374Z,6.57
2022-12-01T00:43:45.288Z,6.58
2022-12-01T00:44:45.382Z,6.54
2022-12-01T00:45:45.449Z,6.6
2022-12-01T00:46:45.760Z,6.62
2022-12-01T00:47:45.487Z,6.68
2022-12-01T00:48:45.281Z,6.74
2022-12-01T00:49:48.738Z,6.77
2022-12-01T00:50:45.373Z,6.84
2022-12-01T00:51:45.764Z,6.85
2022-12-01T00:52:45.436Z,6.81
2022-12-01T00:53:45.444Z,6.86
2022-12-01T00:54:45.282Z,6.88
2022-12-01T00:55:45.637Z,6.88
2022-12-01T00:56:45.709Z,6.79
2022-12-01T00:57:45.349Z,6.74
2022-12-01T00:58:45.413Z,6.75
2022-12-01T00:59:45.473Z,6.77
2022-12-01T01:00:48.393Z,6.8
2022-12-01T01:01:45.792Z,6.77
2022-12-01T01:02:45.539Z,6.74
2022-12-01T01:03:45.373Z,6.73
2022-12-01T01:04:45.260Z,6.76
2022-12-01T01:05:45.291Z,6.74
2022-12-01T01:06:45.645Z,6.66
2022-12-01T01:07:45.527Z,6.62
2022-12-01T01:08:45.394Z,6.6
2022-12-01T01:09:45.462Z,6.63
2022-12-01T01:10:45.711Z,6.68
2022-12-01T01:11:45.647Z,6.7
2022-12-01T01:12:45.336Z,6.72
2022-12-01T01:13:45.377Z,6.72
2022-12-01T01:14:45.258Z,6.72
2022-12-01T01:15:45.291Z,6.7
2022-12-01T01:16:51.391Z,6.72
2022-12-01T01:17:45.383Z,6.74
2022-12-01T01:18:45.344Z,6.73
2022-12-01T01:19:45.287Z,6.68
2022-12-01T01:20:45.357Z,6.65
2022-12-01T01:21:45.701Z,6.55
2022-12-01T01:22:45.378Z,6.58
2022-12-01T01:23:45.408Z,6.55
2022-12-01T01:24:45.487Z,6.5
2022-12-01T01:25:45.701Z,6.48
2022-12-01T01:26:45.635Z,6.47
2022-12-01T01:27:45.297Z,6.49
2022-12-01T01:28:45.352Z,6.52
2022-12-01T01:29:45.503Z,6.53
2022-12-01T01:30:45.329Z,6.53
2022-12-01T01:31:45.839Z,6.36
2022-12-01T01:32:48.343Z,6.36
2022-12-01T01:33:45.466Z,6.37
2022-12-01T01:34:45.269Z,6.41
2022-12-01T01:35:45.375Z,6.42
2022-12-01T01:36:45.760Z,6.42
2022-12-01T01:37:45.385Z,6.42
2022-12-01T01:38:45.297Z,6.42
2022-12-01T01:39:45.296Z,6.39
2022-12-01T01:40:45.641Z,6.33
2022-12-01T01:41:45.681Z,6.27
2022-12-01T01:42:45.370Z,6.19
2022-12-01T01:43:48.325Z,6.18
2022-12-01T01:44:45.330Z,6.19
2022-12-01T01:45:45.341Z,6.29
2022-12-01T01:46:45.703Z,6.34
2022-12-01T01:47:45.455Z,6.44
2022-12-01T01:48:45.268Z,6.53
2022-12-01T01:49:45.533Z,6.62
2022-12-01T01:50:45.277Z,6.64
2022-12-01T01:51:45.638Z,6.65
2022-12-01T01:52:45.503Z,6.65
2022-12-01T01:53:45.452Z,6.69
2022-12-01T01:54:48.297Z,6.64
2022-12-01T01:55:45.642Z,6.58
2022-12-01T01:56:45.646Z,6.48
2022-12-01T01:57:45.439Z,6.4
2022-12-01T01:58:45.370Z,6.37
2022-12-01T01:59:45.487Z,6.37
2022-12-01T02:00:45.284Z,6.36
2022-12-01T02:01:45.787Z,6.26
2022-12-01T02:02:45.490Z,6.23
2022-12-01T02:03:45.450Z,6.21
2022-12-01T02:04:45.396Z,6.27
2022-12-01T02:05:48.347Z,6.37
2022-12-01T02:06:45.749Z,6.42
2022-12-01T02:07:45.650Z,6.39
2022-12-01T02:08:45.483Z,6.43
2022-12-01T02:09:45.746Z,6.47
2022-12-01T02:10:45.646Z,6.51
2022-12-01T02:11:45.699Z,6.54
2022-12-01T02:12:45.275Z,6.58
2022-12-01T02:13:45.269Z,6.63
2022-12-01T02:14:45.361Z,6.7
2022-12-01T02:15:45.328Z,6.71
2022-12-01T02:16:48.765Z,6.73
2022-12-01T02:17:45.363Z,6.73
2022-12-01T02:18:45.382Z,6.73
2022-12-01T02:19:45.274Z,6.73
2022-12-01T02:20:45.380Z,6.7
2022-12-01T02:21:45.904Z,6.67
2022-12-01T02:22:49.382Z,6.67
2022-12-01T02:23:45.394Z,6.72
2022-12-01T02:24:45.482Z,6.76
2022-12-01T02:25:45.711Z,6.78
2022-12-01T02:26:45.632Z,6.79
2022-12-01T02:27:48.409Z,6.68
2022-12-01T02:28:45.356Z,6.56
2022-12-01T02:29:45.361Z,6.56
2022-12-01T02:30:45.340Z,6.58
2022-12-01T02:31:45.630Z,6.61
2022-12-01T02:32:45.338Z,6.63
2022-12-01T02:33:45.280Z,6.68
2022-12-01T02:34:45.276Z,6.68
2022-12-01T02:35:45.281Z,6.71
2022-12-01T02:36:45.701Z,6.76
2022-12-01T02:37:45.356Z,6.8
2022-12-01T02:38:45.379Z,6.77
2022-12-01T02:39:45.279Z,6.73
2022-12-01T02:40:45.712Z,6.73
2022-12-01T02:41:45.650Z,6.71
2022-12-01T02:42:45.477Z,6.68
2022-12-01T02:43:48.264Z,6.67
2022-12-01T02:44:45.258Z,6.64
2022-12-01T02:45:45.493Z,6.62
2022-12-01T02:46:45.768Z,6.56
2022-12-01T02:47:45.381Z,6.54
2022-12-01T02:48:45.315Z,6.52
2022-12-01T02:49:45.414Z,6.38
2022-12-01T02:50:45.401Z,6.39
2022-12-01T02:51:45.706Z,6.42
2022-12-01T02:52:45.343Z,6.5
2022-12-01T02:53:45.390Z,6.5
2022-12-01T02:54:45.370Z,6.52
2022-12-01T02:55:45.704Z,6.57
2022-12-01T02:56:45.686Z,6.56
2022-12-01T02:57:45.449Z,6.53
2022-12-01T02:58:45.276Z,6.51
2022-12-01T02:59:45.379Z,6.53
2022-12-01T03:00:45.385Z,6.57
2022-12-01T03:01:45.502Z,6.63
2022-12-01T03:02:45.332Z,6.67
2022-12-01T03:03:45.370Z,6.68
2022-12-01T03:04:48.412Z,6.69
2022-12-01T03:05:45.453Z,6.67
2022-12-01T03:06:45.792Z,6.68
2022-12-01T03:07:45.427Z,6.68
2022-12-01T03:08:45.374Z,6.65
2022-12-01T03:09:45.419Z,6.62
2022-12-01T03:10:45.650Z,6.53
2022-12-01T03:11:45.741Z,6.54
2022-12-01T03:12:45.384Z,6.5
2022-12-01T03:13:45.318Z,6.48
2022-12-01T03:14:45.335Z,6.5
2022-12-01T03:15:48.474Z,6.55
2022-12-01T03:16:45.714Z,6.6
2022-12-01T03:17:45.396Z,6.62
2022-12-01T03:18:45.444Z,6.63
2022-12-01T03:19:45.509Z,6.63
2022-12-01T03:20:45.259Z,6.62
2022-12-01T03:21:45.638Z,6.6
2022-12-01T03:22:45.263Z,6.57
2022-12-01T03:23:45.281Z,6.52
2022-12-01T03:24:45.406Z,6.49
2022-12-01T03:25:45.778Z,6.45
2022-12-01T03:26:51.333Z,6.45
2022-12-01T03:28:13.579Z,6.42
2022-12-01T03:28:45.400Z,6.41
2022-12-01T03:29:45.520Z,6.42
2022-12-01T03:30:45.406Z,6.41
2022-12-01T03:31:45.808Z,6.37
2022-12-01T03:32:45.389Z,6.34
2022-12-01T03:33:45.392Z,6.31
2022-12-01T03:34:45.358Z,6.26
2022-12-01T03:35:45.264Z,6.25
2022-12-01T03:36:45.711Z,6.24
2022-12-01T03:37:48.443Z,6.29
2022-12-01T03:38:45.368Z,6.34
2022-12-01T03:39:45.478Z,6.35
2022-12-01T03:40:45.444Z,6.37
2022-12-01T03:41:45.641Z,6.39
2022-12-01T03:42:45.277Z,6.41
2022-12-01T03:43:45.378Z,6.33
2022-12-01T03:44:45.282Z,6.31
2022-12-01T03:45:45.400Z,6.34
2022-12-01T03:46:45.671Z,6.32
2022-12-01T03:47:45.275Z,6.33
2022-12-01T03:48:48.397Z,6.32
2022-12-01T03:49:45.412Z,6.27
2022-12-01T03:50:45.275Z,6.21
2022-12-01T03:51:45.814Z,6.19
2022-12-01T03:52:45.362Z,6.19
2022-12-01T03:53:45.360Z,6.26
2022-12-01T03:54:45.401Z,6.28
2022-12-01T03:55:45.634Z,6.3
2022-12-01T03:56:45.639Z,6.25
2022-12-01T03:57:45.415Z,6.27
2022-12-01T03:58:45.411Z,6.24
2022-12-01T03:59:45.325Z,6.24
2022-12-01T04:00:45.441Z,6.22
2022-12-01T04:01:45.735Z,6.25
2022-12-01T04:02:45.537Z,6.27
2022-12-01T04:03:45.306Z,6.26
2022-12-01T04:04:48.289Z,6.28
2022-12-01T04:05:45.383Z,6.28
2022-12-01T04:06:45.735Z,6.31
2022-12-01T04:07:45.447Z,6.29
2022-12-01T04:08:45.361Z,6.31
2022-12-01T04:09:45.267Z,6.36
2022-12-01T04:10:45.685Z,6.42
2022-12-01T04:11:45.766Z,6.41
2022-12-01T04:12:45.276Z,6.39
2022-12-01T04:13:45.498Z,6.35
2022-12-01T04:14:45.351Z,6.32
2022-12-01T04:15:48.457Z,6.31
2022-12-01T04:16:45.632Z,6.33
2022-12-01T04:17:45.489Z,6.34
2022-12-01T04:18:45.277Z,6.33
2022-12-01T04:19:45.411Z,6.36
2022-12-01T04:20:45.397Z,6.36
2022-12-01T04:21:45.635Z,6.38
2022-12-01T04:22:45.379Z,6.36
2022-12-01T04:23:45.412Z,6.36
2022-12-01T04:24:45.258Z,6.35
2022-12-01T04:25:45.641Z,6.34
2022-12-01T04:26:51.305Z,6.36
2022-12-01T04:27:45.422Z,6.34
2022-12-01T04:28:45.305Z,6.33
2022-12-01T04:29:45.260Z,6.35
2022-12-01T04:30:45.273Z,6.37
2022-12-01T04:31:45.687Z,6.36
2022-12-01T04:32:45.366Z,6.35
2022-12-01T04:33:45.479Z,6.44
2022-12-01T04:34:45.361Z,6.46
2022-12-01T04:35:45.265Z,6.44
2022-12-01T04:36:45.706Z,6.47
2022-12-01T04:37:48.294Z,6.46
2022-12-01T04:38:45.438Z,6.47
2022-12-01T04:39:45.263Z,6.48
2022-12-01T04:40:45.714Z,6.5
2022-12-01T04:41:45.639Z,6.52
2022-12-01T04:42:45.354Z,6.54
2022-12-01T04:43:45.368Z,6.53
2022-12-01T04:44:45.416Z,6.49
2022-12-01T04:45:45.483Z,6.48
2022-12-01T04:46:45.747Z,6.44
2022-12-01T04:47:45.417Z,6.47
2022-12-01T04:48:45.432Z,6.48
2022-12-01T04:49:45.348Z,6.51
2022-12-01T04:50:45.391Z,6.55
2022-12-01T04:51:45.641Z,6.59
2022-12-01T04:52:45.350Z,6.6
2022-12-01T04:53:48.397Z,6.58
2022-12-01T04:54:45.463Z,6.58
2022-12-01T04:55:45.718Z,6.55
2022-12-01T04:56:45.643Z,6.55
2022-12-01T04:57:45.312Z,6.55
2022-12-01T04:58:45.474Z,6.53
2022-12-01T04:59:45.276Z,6.53
2022-12-01T05:00:45.426Z,6.56
2022-12-01T05:01:45.434Z,6.52
2022-12-01T05:02:45.371Z,6.53
2022-12-01T05:03:45.390Z,6.52
2022-12-01T05:04:48.336Z,6.51
2022-12-01T05:05:45.271Z,6.55
2022-12-01T05:06:45.711Z,6.57
2022-12-01T05:07:45.390Z,6.6
2022-12-01T05:08:45.266Z,6.61
2022-12-01T05:09:45.279Z,6.57
2022-12-01T05:10:45.643Z,6.55
2022-12-01T05:11:45.704Z,6.51
2022-12-01T05:12:45.503Z,6.52
2022-12-01T05:13:45.339Z,6.51
2022-12-01T05:14:45.310Z,6.54
2022-12-01T05:15:48.261Z,6.58
2022-12-01T05:16:45.714Z,6.61
2022-12-01T05:17:45.274Z,6.62
2022-12-01T05:18:45.395Z,6.6
2022-12-01T05:19:45.467Z,6.63
2022-12-01T05:20:45.259Z,6.63
2022-12-01T05:21:45.807Z,6.59
2022-12-01T05:23:04.701Z,6.5
2022-12-01T05:23:45.276Z,6.47
2022-12-01T05:24:45.413Z,6.49
2022-12-01T05:25:45.711Z,6.49
2022-12-01T05:26:51.356Z,6.53
2022-12-01T05:27:45.385Z,6.53
2022-12-01T05:28:45.467Z,6.54
2022-12-01T05:29:45.348Z,6.55
2022-12-01T05:30:45.277Z,6.53
2022-12-01T05:31:45.918Z,6.54
2022-12-01T05:32:45.281Z,6.56
2022-12-01T05:33:45.425Z,6.54
2022-12-01T05:34:45.344Z,6.51
2022-12-01T05:35:45.407Z,6.5
2022-12-01T05:36:45.700Z,6.48
2022-12-01T05:37:48.383Z,6.46
2022-12-01T05:38:45.510Z,6.48
2022-12-01T05:39:45.387Z,6.53
2022-12-01T05:40:48.544Z,6.56
2022-12-01T05:41:45.631Z,6.5
2022-12-01T05:42:45.361Z,6.29
2022-12-01T05:43:45.300Z,6.29
2022-12-01T05:44:45.281Z,6.32
2022-12-01T05:45:45.347Z,6.35
2022-12-01T05:46:45.638Z,6.39
2022-12-01T05:47:45.363Z,6.45
2022-12-01T05:48:45.313Z,6.5
2022-12-01T05:49:45.355Z,6.49
2022-12-01T05:50:45.283Z,6.46
2022-12-01T05:51:45.301Z,6.46
2022-12-01T05:52:45.270Z,6.46
2022-12-01T05:53:48.376Z,6.45
2022-12-01T05:54:45.408Z,6.38
2022-12-01T05:55:45.371Z,6.4
2022-12-01T05:56:45.710Z,6.46
2022-12-01T05:57:45.358Z,6.48
2022-12-01T05:58:45.375Z,6.49
2022-12-01T05:59:45.266Z,6.5
2022-12-01T06:00:46.229Z,6.5
2022-12-01T06:01:45.786Z,6.52
2022-12-01T06:02:45.356Z,6.54
2022-12-01T06:03:45.277Z,6.56
2022-12-01T06:04:48.304Z,6.57
2022-12-01T06:05:45.371Z,6.59
2022-12-01T06:06:45.655Z,6.56
2022-12-01T06:07:45.377Z,6.52
2022-12-01T06:08:45.386Z,6.5
2022-12-01T06:09:45.417Z,6.46
2022-12-01T06:10:45.371Z,6.47
2022-12-01T06:11:52.229Z,6.5
2022-12-01T06:12:45.351Z,6.5
2022-12-01T06:13:45.278Z,6.47
2022-12-01T06:14:45.285Z,6.44
2022-12-01T06:15:48.387Z,6.44
2022-12-01T06:16:45.885Z,6.45
2022-12-01T06:17:45.299Z,6.49
2022-12-01T06:18:45.285Z,6.5
2022-12-01T06:19:45.464Z,6.52
2022-12-01T06:20:45.491Z,6.46
2022-12-01T06:21:45.481Z,6.46
2022-12-01T06:22:45.280Z,6.44
2022-12-01T06:23:45.402Z,6.44
2022-12-01T06:24:45.473Z,6.42
2022-12-01T06:25:45.460Z,6.37
2022-12-01T06:26:45.641Z,6.33
2022-12-01T06:27:45.506Z,6.29
2022-12-01T06:28:45.277Z,6.25
2022-12-01T06:29:45.377Z,6.28
2022-12-01T06:30:45.421Z,6.32
2022-12-01T06:31:45.669Z,6.34
2022-12-01T06:32:45.279Z,6.32
2022-12-01T06:33:45.385Z,6.34
2022-12-01T06:34:45.455Z,6.34
2022-12-01T06:35:45.366Z,6.36
2022-12-01T06:36:48.779Z,6.35
2022-12-01T06:37:45.487Z,6.34
2022-12-01T06:38:45.412Z,6.32
2022-12-01T06:39:45.414Z,6.33
2022-12-01T06:40:45.431Z,6.33
2022-12-01T06:41:45.634Z,6.35
2022-12-01T06:42:48.289Z,6.34
2022-12-01T06:43:45.468Z,6.33
2022-12-01T06:44:45.399Z,6.34
2022-12-01T06:45:45.561Z,6.34
2022-12-01T06:46:45.633Z,6.35
2022-12-01T06:47:45.300Z,6.37
2022-12-01T06:48:48.282Z,6.36
2022-12-01T06:49:45.436Z,6.35
2022-12-01T06:50:45.581Z,6.34
2022-12-01T06:51:45.632Z,6.26
2022-12-01T06:52:45.649Z,6.23
2022-12-01T06:53:45.281Z,6.19
2022-12-01T06:54:45.411Z,6.15
2022-12-01T06:55:45.415Z,6.21
2022-12-01T06:56:45.640Z,6.25
2022-12-01T06:57:45.343Z,6.26
2022-12-01T06:58:45.286Z,6.29
2022-12-01T06:59:48.712Z,6.28
2022-12-01T07:00:50.473Z,6.28
2022-12-01T07:01:45.687Z,6.27
2022-12-01T07:02:45.480Z,6.28
2022-12-01T07:03:45.263Z,6.28
2022-12-01T07:04:45.257Z,6.28
2022-12-01T07:05:45.424Z,6.27
2022-12-01T07:06:45.632Z,6.23
2022-12-01T07:07:45.433Z,6.24
2022-12-01T07:08:45.270Z,6.24
2022-12-01T07:09:45.331Z,6.28
2022-12-01T07:10:48.297Z,6.3
2022-12-01T07:11:45.693Z,6.32
2022-12-01T07:12:45.381Z,6.18
2022-12-01T07:13:45.271Z,6.06
2022-12-01T07:14:45.449Z,5.95
2022-12-01T07:15:45.359Z,5.96
2022-12-01T07:16:45.712Z,6
2022-12-01T07:17:45.267Z,6.03
2022-12-01T07:18:45.459Z,6.09
2022-12-01T07:19:45.356Z,6.11
2022-12-01T07:20:45.486Z,6.13
2022-12-01T07:21:45.647Z,6.1
2022-12-01T07:22:45.400Z,6.03
2022-12-01T07:23:45.465Z,5.99
2022-12-01T07:24:45.382Z,5.98
2022-12-01T07:25:45.499Z,6.04
2022-12-01T07:26:51.335Z,6.05
2022-12-01T07:27:45.373Z,6.01
2022-12-01T07:28:45.285Z,5.95
2022-12-01T07:29:45.384Z,5.92
2022-12-01T07:30:45.554Z,5.99
2022-12-01T07:31:45.829Z,6.04
2022-12-01T07:32:45.286Z,6.02
2022-12-01T07:33:45.286Z,6
2022-12-01T07:34:45.355Z,6.05
2022-12-01T07:35:45.423Z,6.08
2022-12-01T07:36:45.643Z,6.14
2022-12-01T07:37:48.309Z,6.17
2022-12-01T07:38:45.380Z,6.12
2022-12-01T07:39:45.260Z,6.02
2022-12-01T07:40:45.283Z,6.02
2022-12-01T07:41:45.641Z,6.09
2022-12-01T07:42:45.439Z,6.12
2022-12-01T07:43:48.250Z,6.16
2022-12-01T07:44:45.483Z,6.16
2022-12-01T07:45:45.458Z,6.09
2022-12-01T07:46:45.695Z,6.04
2022-12-01T07:47:45.264Z,6.09
2022-12-01T07:48:45.263Z,6.05
2022-12-01T07:49:45.384Z,6.03
2022-12-01T07:50:45.241Z,6.08
2022-12-01T07:51:45.712Z,6.12
2022-12-01T07:52:45.281Z,6.14
2022-12-01T07:53:45.480Z,6.12
2022-12-01T07:54:48.291Z,6.12
2022-12-01T07:55:45.369Z,6.08
2022-12-01T07:56:45.716Z,5.97
2022-12-01T07:57:45.351Z,5.89
2022-12-01T07:58:45.402Z,5.78
2022-12-01T07:59:45.419Z,5.73
2022-12-01T08:00:45.478Z,5.7
2022-12-01T08:01:45.748Z,5.66
2022-12-01T08:02:45.352Z,5.64
2022-12-01T08:03:45.368Z,5.66
2022-12-01T08:04:45.265Z,5.64
2022-12-01T08:05:45.290Z,5.57
2022-12-01T08:06:45.922Z,5.49
2022-12-01T08:07:48.131Z,5.51
2022-12-01T08:08:45.442Z,5.57
2022-12-01T08:09:45.357Z,5.58
2022-12-01T08:10:48.405Z,5.66
2022-12-01T08:11:45.637Z,5.64
2022-12-01T08:12:45.458Z,5.67
2022-12-01T08:13:45.351Z,5.69
2022-12-01T08:14:45.384Z,5.66
2022-12-01T08:15:45.485Z,5.61
2022-12-01T08:16:45.632Z,5.58
2022-12-01T08:17:45.308Z,5.55
2022-12-01T08:18:45.377Z,5.48
2022-12-01T08:19:45.283Z,5.45
2022-12-01T08:20:45.417Z,5.43
2022-12-01T08:21:51.332Z,5.47
2022-12-01T08:22:45.449Z,5.46
2022-12-01T08:23:45.425Z,5.44
2022-12-01T08:24:45.449Z,5.49
2022-12-01T08:25:45.263Z,5.5
2022-12-01T08:26:45.648Z,5.52
2022-12-01T08:27:45.281Z,5.43
2022-12-01T08:28:45.360Z,5.36
2022-12-01T08:29:45.399Z,5.34
2022-12-01T08:30:45.437Z,5.3
2022-12-01T08:31:45.632Z,5.35
2022-12-01T08:32:48.460Z,5.51
2022-12-01T08:33:45.418Z,5.65
2022-12-01T08:34:49.368Z,5.66
2022-12-01T08:35:45.399Z,5.67
2022-12-01T08:36:45.636Z,5.76
2022-12-01T08:37:45.375Z,5.74
2022-12-01T08:38:45.404Z,5.73
2022-12-01T08:39:45.409Z,5.71
2022-12-01T08:40:45.453Z,5.72
2022-12-01T08:41:45.714Z,5.77
2022-12-01T08:42:45.350Z,5.84
2022-12-01T08:43:59.424Z,5.85
2022-12-01T08:44:45.509Z,5.88
2022-12-01T08:45:45.427Z,5.86
2022-12-01T08:46:45.704Z,5.89
2022-12-01T08:47:45.356Z,5.99
2022-12-01T08:48:45.464Z,6.07
2022-12-01T08:49:45.254Z,5.96
2022-12-01T08:50:45.286Z,5.91
2022-12-01T08:51:45.704Z,5.91
2022-12-01T08:52:45.352Z,5.91
2022-12-01T08:53:45.869Z,5.91
2022-12-01T08:54:48.267Z,5.99
2022-12-01T08:55:45.371Z,6.08
2022-12-01T08:56:45.706Z,6.09
2022-12-01T08:57:45.358Z,6.11
2022-12-01T08:58:45.253Z,6.19
2022-12-01T08:59:45.283Z,6.2
2022-12-01T09:00:48.343Z,6.28
2022-12-01T09:01:45.693Z,6.25
2022-12-01T09:02:45.327Z,6.18
2022-12-01T09:03:45.471Z,6.15
2022-12-01T09:04:45.278Z,6.13
2022-12-01T09:05:45.279Z,6.13
2022-12-01T09:06:51.323Z,6.11
2022-12-01T09:07:45.434Z,6.16
2022-12-01T09:08:45.264Z,6.29
2022-12-01T09:09:45.280Z,6.42
2022-12-01T09:10:45.396Z,6.53
2022-12-01T09:11:45.700Z,6.63
2022-12-01T09:12:48.364Z,6.67
2022-12-01T09:13:48.735Z,6.67
2022-12-01T09:14:45.278Z,6.6
2022-12-01T09:15:45.529Z,6.62
2022-12-01T09:16:45.686Z,6.69
2022-12-01T09:17:45.381Z,6.64
2022-12-01T09:18:45.259Z,6.62
2022-12-01T09:19:45.358Z,6.53
2022-12-01T09:20:45.399Z,6.52
2022-12-01T09:21:45.639Z,6.58
2022-12-01T09:22:45.452Z,6.59
2022-12-01T09:23:48.377Z,6.58
2022-12-01T09:24:45.386Z,6.7
2022-12-01T09:25:45.411Z,6.68
2022-12-01T09:26:45.646Z,6.77
2022-12-01T09:27:45.368Z,6.93
2022-12-01T09:28:45.385Z,7.04
2022-12-01T09:29:45.362Z,7.15
2022-12-01T09:30:45.352Z,7.24
2022-12-01T09:31:45.713Z,7.32
2022-12-01T09:32:45.443Z,7.46
2022-12-01T09:33:45.294Z,7.58
2022-12-01T09:34:48.400Z,7.63
2022-12-01T09:35:45.463Z,7.62
2022-12-01T09:36:45.700Z,7.51
2022-12-01T09:37:45.434Z,7.37
2022-12-01T09:38:45.277Z,7.33
2022-12-01T09:39:45.380Z,7.38
2022-12-01T09:40:45.281Z,7.23
2022-12-01T09:41:45.768Z,7.2
2022-12-01T09:42:45.492Z,7.23
2022-12-01T09:43:45.439Z,7.28
2022-12-01T09:44:45.270Z,7.22
2022-12-01T09:45:45.315Z,7.08
2022-12-01T09:46:45.695Z,7.03
2022-12-01T09:47:45.351Z,7.03
2022-12-01T09:48:45.383Z,7.15
2022-12-01T09:49:45.270Z,7.13
2022-12-01T09:50:48.279Z,7.07
2022-12-01T09:51:45.747Z,7.09
2022-12-01T09:52:45.348Z,6.91
2022-12-01T09:53:45.427Z,6.73
2022-12-01T09:54:45.405Z,6.55
2022-12-01T09:55:45.264Z,6.44
2022-12-01T09:56:45.641Z,6.42
2022-12-01T09:57:45.476Z,6.47
2022-12-01T09:58:45.422Z,6.57
2022-12-01T09:59:45.267Z,6.57
2022-12-01T10:00:45.414Z,6.5
2022-12-01T10:01:48.804Z,6.47
2022-12-01T10:02:45.350Z,6.47
2022-12-01T10:03:45.284Z,6.52
2022-12-01T10:04:45.263Z,6.6
2022-12-01T10:06:10.196Z,6.68
2022-12-01T10:06:45.708Z,6.66
2022-12-01T10:07:45.405Z,6.63
2022-12-01T10:08:45.266Z,6.61
2022-12-01T10:09:45.313Z,6.52
2022-12-01T10:10:45.397Z,6.53
2022-12-01T10:11:45.648Z,6.67
2022-12-01T10:12:45.275Z,6.77
2022-12-01T10:13:45.285Z,6.91
2022-12-01T10:14:45.287Z,6.88
2022-12-01T10:15:45.417Z,6.97
2022-12-01T10:16:45.757Z,7.05
2022-12-01T10:17:48.390Z,7.17
2022-12-01T10:18:45.428Z,7.09
2022-12-01T10:19:45.351Z,7.11
2022-12-01T10:20:45.277Z,7.26
2022-12-01T10:21:45.713Z,7.37
2022-12-01T10:22:45.399Z,7.53
2022-12-01T10:23:45.288Z,7.6
2022-12-01T10:24:45.333Z,7.39
2022-12-01T10:25:45.280Z,7.35
2022-12-01T10:26:45.718Z,7.35
2022-12-01T10:27:45.491Z,7.57
2022-12-01T10:28:48.284Z,7.81
2022-12-01T10:29:47.783Z,8.02
2022-12-01T10:30:45.334Z,8.2
2022-12-01T10:31:45.713Z,8.4
2022-12-01T10:32:45.276Z,8.55
2022-12-01T10:33:45.280Z,8.65
2022-12-01T10:34:45.365Z,8.65
2022-12-01T10:35:45.271Z,8.76
2022-12-01T10:36:45.656Z,8.76
2022-12-01T10:37:45.401Z,8.85
2022-12-01T10:38:45.380Z,8.85
2022-12-01T10:39:45.267Z,8.5
2022-12-01T10:40:45.299Z,8.12
2022-12-01T10:41:45.720Z,8.02
2022-12-01T10:42:45.462Z,8.05
2022-12-01T10:43:45.399Z,8.07
2022-12-01T10:44:48.275Z,7.99
2022-12-01T10:45:45.575Z,8.13
2022-12-01T10:46:45.747Z,8.31
2022-12-01T10:47:45.422Z,8.28
2022-12-01T10:48:45.276Z,8.21
2022-12-01T10:49:45.440Z,8.03
2022-12-01T10:50:45.384Z,7.89
2022-12-01T10:51:45.747Z,7.91
2022-12-01T10:52:45.500Z,7.87
2022-12-01T10:53:45.282Z,7.82
2022-12-01T10:54:45.408Z,7.93
2022-12-01T10:55:48.386Z,8.06
2022-12-01T10:56:45.649Z,8.04
2022-12-01T10:57:45.295Z,8.09
2022-12-01T10:58:45.390Z,7.82
2022-12-01T10:59:45.356Z,7.85
2022-12-01T11:01:09.539Z,7.97
2022-12-01T11:01:45.676Z,7.89
2022-12-01T11:02:45.562Z,7.8
2022-12-01T11:03:45.506Z,7.79
2022-12-01T11:04:45.678Z,7.62
2022-12-01T11:05:45.384Z,7.58
2022-12-01T11:06:51.323Z,7.55
2022-12-01T11:07:45.435Z,7.37
2022-12-01T11:08:45.251Z,7.32
2022-12-01T11:09:45.438Z,7.45
2022-12-01T11:10:45.262Z,7.5
2022-12-01T11:11:45.688Z,7.4
2022-12-01T11:12:45.377Z,7.31
2022-12-01T11:13:45.412Z,7.18
2022-12-01T11:14:45.487Z,7.15
2022-12-01T11:15:45.478Z,7.12
2022-12-01T11:16:45.719Z,7.18
2022-12-01T11:17:48.284Z,7.22
2022-12-01T11:18:45.499Z,7.32
2022-12-01T11:19:45.590Z,7.39
2022-12-01T11:20:45.459Z,7.46
2022-12-01T11:21:45.716Z,7.53
2022-12-01T11:22:45.364Z,7.68
2022-12-01T11:23:45.264Z,7.72
2022-12-01T11:24:45.561Z,7.72
2022-12-01T11:25:45.379Z,7.6
2022-12-01T11:26:45.643Z,7.57
2022-12-01T11:27:45.425Z,7.59
2022-12-01T11:28:46.976Z,7.66
2022-12-01T11:29:45.258Z,7.67
2022-12-01T11:30:45.262Z,7.76
2022-12-01T11:31:45.854Z,7.74
2022-12-01T11:32:45.362Z,7.97
2022-12-01T11:33:48.298Z,8.18
2022-12-01T11:34:45.431Z,8.28
2022-12-01T11:35:45.415Z,8.43
2022-12-01T11:36:45.649Z,8.47
2022-12-01T11:37:54.925Z,8.36
2022-12-01T11:38:45.289Z,8.29
2022-12-01T11:39:48.725Z,8.13
2022-12-01T11:40:45.340Z,8.09
2022-12-01T11:41:45.767Z,7.86
2022-12-01T11:42:45.398Z,7.82
2022-12-01T11:43:50.514Z,7.71
2022-12-01T11:44:51.677Z,7.65
2022-12-01T11:45:45.352Z,7.62
2022-12-01T11:47:07.639Z,7.58
2022-12-01T11:47:45.358Z,7.55
2022-12-01T11:48:45.304Z,7.57
2022-12-01T11:49:47.244Z,7.67
2022-12-01T11:50:48.601Z,7.64
2022-12-01T11:51:45.642Z,7.66
2022-12-01T11:52:45.360Z,7.8
2022-12-01T11:53:45.355Z,7.96
2022-12-01T11:54:45.582Z,8.05
2022-12-01T11:55:45.284Z,8.01
2022-12-01T11:56:45.639Z,8.01
2022-12-01T11:57:45.366Z,7.94
2022-12-01T11:58:45.365Z,7.89
2022-12-01T11:59:46.559Z,7.77
2022-12-01T12:00:45.487Z,7.55
2022-12-01T12:01:51.325Z,7.5
2022-12-01T12:02:45.529Z,7.61
2022-12-01T12:03:45.404Z,7.51
2022-12-01T12:04:45.267Z,7.53
2022-12-01T12:05:45.539Z,7.53
2022-12-01T12:06:45.788Z,7.4
2022-12-01T12:07:45.377Z,7.38
2022-12-01T12:08:45.345Z,7.35
2022-12-01T12:09:45.428Z,7.31
2022-12-01T12:10:45.438Z,7.38
2022-12-01T12:11:45.721Z,7.53
2022-12-01T12:12:48.302Z,7.52
2022-12-01T12:13:45.413Z,7.47
2022-12-01T12:14:45.391Z,7.46
2022-12-01T12:15:45.420Z,7.5
2022-12-01T12:16:45.439Z,7.38
2022-12-01T12:17:45.338Z,7.45
2022-12-01T12:18:45.432Z,7.52
2022-12-01T12:20:07.182Z,7.47
2022-12-01T12:20:45.393Z,7.36
2022-12-01T12:21:45.642Z,7.33
2022-12-01T12:22:45.355Z,7.33
2022-12-01T12:23:48.424Z,7.37
2022-12-01T12:24:45.351Z,7.4
2022-12-01T12:25:45.414Z,7.53
2022-12-01T12:26:45.815Z,7.66
2022-12-01T12:27:45.505Z,7.65
2022-12-01T12:28:45.273Z,7.59
2022-12-01T12:29:45.452Z,7.53
2022-12-01T12:30:45.463Z,7.49
2022-12-01T12:31:45.755Z,7.47
2022-12-01T12:32:45.362Z,7.44
2022-12-01T12:33:45.387Z,7.5
2022-12-01T12:34:45.393Z,7.61
2022-12-01T12:35:45.347Z,7.68
2022-12-01T12:36:45.706Z,7.71
2022-12-01T12:37:45.356Z,7.73
2022-12-01T12:38:45.282Z,7.76
2022-12-01T12:39:48.686Z,7.69
2022-12-01T12:40:45.363Z,7.58
2022-12-01T12:41:45.716Z,7.52
2022-12-01T12:42:45.384Z,7.42
2022-12-01T12:43:45.382Z,7.34
2022-12-01T12:44:45.440Z,7.31
2022-12-01T12:45:45.276Z,7.21
2022-12-01T12:46:45.899Z,7.1
2022-12-01T12:47:45.464Z,7.03
2022-12-01T12:49:11.701Z,7.01
2022-12-01T12:49:45.468Z,7.01
2022-12-01T12:50:48.273Z,6.98
2022-12-01T12:51:45.632Z,7.03
2022-12-01T12:52:45.370Z,7.1
2022-12-01T12:53:45.332Z,7.23
2022-12-01T12:54:45.435Z,7.32
2022-12-01T12:55:45.359Z,7.42
2022-12-01T12:56:45.702Z,7.36
2022-12-01T12:57:45.429Z,7.31
2022-12-01T12:58:45.442Z,7.3
2022-12-01T12:59:45.433Z,7.3
2022-12-01T13:00:45.349Z,7.29
2022-12-01T13:01:51.340Z,7.24
2022-12-01T13:02:45.433Z,7.15
2022-12-01T13:03:45.385Z,7.07
2022-12-01T13:04:45.354Z,7.13
2022-12-01T13:05:45.363Z,7.1
2022-12-01T13:06:48.140Z,7.13
2022-12-01T13:07:45.484Z,7.15
2022-12-01T13:08:45.364Z,7.14
2022-12-01T13:09:45.332Z,7.14
2022-12-01T13:10:45.329Z,7.19
2022-12-01T13:11:45.658Z,7.31
2022-12-01T13:12:45.262Z,7.4
2022-12-01T13:13:45.388Z,7.5
2022-12-01T13:14:45.475Z,7.63
2022-12-01T13:15:45.427Z,7.59
2022-12-01T13:16:45.732Z,7.56
2022-12-01T13:17:48.447Z,7.53
2022-12-01T13:18:45.457Z,7.5
2022-12-01T13:19:45.285Z,7.57
2022-12-01T13:20:45.284Z,7.51
2022-12-01T13:21:45.854Z,7.45